createdAt,value
2023-05-18T00:01:22.847Z,101418.69
2023-05-18T00:03:49.908Z,101411.22
2023-05-18T00:06:17.499Z,101414.88
2023-05-18T00:08:44.476Z,101418.41
2023-05-18T00:11:11.388Z,101413.38
2023-05-18T00:13:38.357Z,101406.00
2023-05-18T00:16:05.393Z,101413.84
2023-05-18T00:18:34.208Z,101411.44
2023-05-18T00:21:01.971Z,101409.19
2023-05-18T00:23:31.056Z,101411.03
2023-05-18T00:26:02.581Z,101406.75
2023-05-18T00:28:29.878Z,101410.50
2023-05-18T00:30:57.507Z,101399.31
2023-05-18T00:33:24.469Z,101407.53
2023-05-18T00:35:51.429Z,101399.22
2023-05-18T00:38:18.396Z,101399.38
2023-05-18T00:40:45.380Z,101396.69
2023-05-18T00:43:12.473Z,101399.50
2023-05-18T00:45:39.433Z,101404.72
2023-05-18T00:48:07.211Z,101399.50
2023-05-18T00:50:34.967Z,101395.56
2023-05-18T00:53:02.024Z,101406.00
2023-05-18T00:55:29.183Z,101401.78
2023-05-18T00:57:57.501Z,101400.13
2023-05-18T01:00:25.048Z,101400.97
2023-05-18T01:02:52.986Z,101404.59
2023-05-18T01:05:22.279Z,101404.78
2023-05-18T01:07:50.446Z,101394.53
2023-05-18T01:10:19.941Z,101404.50
2023-05-18T01:13:27.832Z,101395.44
2023-05-18T01:15:57.427Z,101393.09
2023-05-18T01:18:39.318Z,101403.63
2023-05-18T01:21:19.339Z,101396.81
2023-05-18T01:23:55.015Z,101401.78
2023-05-18T01:26:31.781Z,101400.34
2023-05-18T01:29:07.202Z,101400.53
2023-05-18T01:31:34.723Z,101399.78
2023-05-18T01:34:01.738Z,101404.06
2023-05-18T01:36:28.633Z,101401.06
2023-05-18T01:38:57.167Z,101404.78
2023-05-18T01:41:25.596Z,101398.09
2023-05-18T01:44:15.690Z,101398.22
2023-05-18T01:47:04.726Z,101387.94
2023-05-18T01:49:45.704Z,101395.22
2023-05-18T01:52:20.683Z,101387.53
2023-05-18T01:54:54.494Z,101387.81
2023-05-18T01:57:28.371Z,101388.75
2023-05-18T01:59:56.653Z,101383.13
2023-05-18T02:02:23.646Z,101382.09
2023-05-18T02:04:50.858Z,101388.16
2023-05-18T02:07:17.908Z,101386.66
2023-05-18T02:09:45.199Z,101390.28
2023-05-18T02:12:12.617Z,101382.91
2023-05-18T02:14:39.630Z,101389.38
2023-05-18T02:17:07.226Z,101395.53
2023-05-18T02:19:38.003Z,101383.56
2023-05-18T02:22:06.907Z,101389.81
2023-05-18T02:24:34.685Z,101395.94
2023-05-18T02:27:02.050Z,101390.13
2023-05-18T02:29:28.915Z,101388.38
2023-05-18T02:31:55.928Z,101387.63
2023-05-18T02:34:24.686Z,101381.66
2023-05-18T02:36:51.654Z,101386.00
2023-05-18T02:39:18.595Z,101388.06
2023-05-18T02:41:45.701Z,101389.91
2023-05-18T02:44:12.996Z,101383.94
2023-05-18T02:46:39.927Z,101383.94
2023-05-18T02:49:06.792Z,101388.22
2023-05-18T02:51:33.790Z,101386.44
2023-05-18T02:54:00.730Z,101384.59
2023-05-18T02:56:28.707Z,101382.16
2023-05-18T02:58:58.308Z,101386.53
2023-05-18T03:01:27.126Z,101379.81
2023-05-18T03:03:57.521Z,101386.19
2023-05-18T03:06:26.737Z,101380.31
2023-05-18T03:08:56.795Z,101382.97
2023-05-18T03:11:24.695Z,101392.59
2023-05-18T03:13:51.904Z,101382.91
2023-05-18T03:16:18.837Z,101384.00
2023-05-18T03:18:46.141Z,101383.25
2023-05-18T03:21:13.698Z,101385.09
2023-05-18T03:23:41.081Z,101388.53
2023-05-18T03:26:11.406Z,101390.38
2023-05-18T03:28:39.187Z,101395.81
2023-05-18T03:31:06.320Z,101392.22
2023-05-18T03:33:33.635Z,101396.84
2023-05-18T03:36:05.097Z,101397.84
2023-05-18T03:38:32.359Z,101396.25
2023-05-18T03:40:59.269Z,101399.09
2023-05-18T03:43:26.510Z,101397.81
2023-05-18T03:45:53.776Z,101407.56
2023-05-18T03:48:21.631Z,101400.97
2023-05-18T03:50:48.925Z,101403.06
2023-05-18T03:53:19.240Z,101403.91
2023-05-18T03:55:46.406Z,101405.03
2023-05-18T03:58:13.465Z,101409.75
2023-05-18T04:00:40.597Z,101410.66
2023-05-18T04:03:07.652Z,101407.97
2023-05-18T04:05:34.596Z,101414.03
2023-05-18T04:08:01.540Z,101416.00
2023-05-18T04:10:28.427Z,101421.91
2023-05-18T04:12:55.421Z,101418.13
2023-05-18T04:15:22.507Z,101418.66
2023-05-18T04:17:51.370Z,101415.38
2023-05-18T04:20:19.275Z,101419.91
2023-05-18T04:22:48.346Z,101431.03
2023-05-18T04:25:16.100Z,101424.16
2023-05-18T04:27:45.331Z,101432.09
2023-05-18T04:30:13.406Z,101433.00
2023-05-18T04:32:43.134Z,101435.34
2023-05-18T04:35:11.818Z,101431.97
2023-05-18T04:37:42.761Z,101441.88
2023-05-18T04:40:20.428Z,101434.13
2023-05-18T04:42:49.831Z,101436.72
2023-05-18T04:45:28.333Z,101439.16
2023-05-18T04:47:55.417Z,101439.06
2023-05-18T04:50:28.879Z,101440.44
2023-05-18T04:52:57.965Z,101443.81
2023-05-18T04:55:33.479Z,101444.22
2023-05-18T04:58:15.601Z,101443.88
2023-05-18T05:00:43.184Z,101447.69
2023-05-18T05:03:10.303Z,101444.91
2023-05-18T05:05:37.282Z,101453.75
2023-05-18T05:08:06.127Z,101448.97
2023-05-18T05:10:33.068Z,101446.03
2023-05-18T05:13:00.141Z,101452.94
2023-05-18T05:15:27.453Z,101452.69
2023-05-18T05:17:54.429Z,101443.75
2023-05-18T05:20:21.518Z,101446.09
2023-05-18T05:22:48.453Z,101449.38
2023-05-18T05:25:16.047Z,101454.75
2023-05-18T05:27:42.977Z,101443.34
2023-05-18T05:30:10.634Z,101454.75
2023-05-18T05:32:40.788Z,101460.44
2023-05-18T05:35:08.082Z,101452.69
2023-05-18T05:37:35.237Z,101459.13
2023-05-18T05:40:02.135Z,101450.13
2023-05-18T05:42:29.978Z,101456.69
2023-05-18T05:44:56.932Z,101454.25
2023-05-18T05:47:23.856Z,101458.66
2023-05-18T05:49:50.899Z,101465.66
2023-05-18T05:52:17.890Z,101464.59
2023-05-18T05:54:44.916Z,101461.31
2023-05-18T05:57:11.920Z,101473.19
2023-05-18T05:59:38.892Z,101468.16
2023-05-18T06:02:05.988Z,101466.44
2023-05-18T06:04:33.127Z,101461.66
2023-05-18T06:07:00.022Z,101466.91
2023-05-18T06:09:27.021Z,101468.94
2023-05-18T06:11:53.964Z,101469.00
2023-05-18T06:14:21.346Z,101466.97
2023-05-18T06:16:51.016Z,101469.25
2023-05-18T06:19:18.081Z,101465.53
2023-05-18T06:21:45.190Z,101479.00
2023-05-18T06:24:12.053Z,101472.84
2023-05-18T06:26:39.053Z,101467.50
2023-05-18T06:29:20.550Z,101477.84
2023-05-18T06:31:47.730Z,101478.44
2023-05-18T06:34:14.701Z,101475.72
2023-05-18T06:36:41.611Z,101472.94
2023-05-18T06:39:08.657Z,101479.59
2023-05-18T06:41:35.633Z,101482.94
2023-05-18T06:44:03.732Z,101485.38
2023-05-18T06:46:30.627Z,101488.72
2023-05-18T06:48:57.656Z,101501.09
2023-05-18T06:51:24.660Z,101492.91
2023-05-18T06:53:51.599Z,101490.72
2023-05-18T06:56:18.852Z,101490.50
2023-05-18T06:58:46.046Z,101488.72
2023-05-18T07:01:13.047Z,101481.66
2023-05-18T07:03:40.210Z,101475.56
2023-05-18T07:06:07.423Z,101484.47
2023-05-18T07:08:39.190Z,101476.63
2023-05-18T07:11:09.117Z,101482.06
2023-05-18T07:13:38.879Z,101480.09
2023-05-18T07:16:08.907Z,101485.19
2023-05-18T07:18:39.860Z,101468.31
2023-05-18T07:21:09.973Z,101469.06
2023-05-18T07:23:37.065Z,101474.91
2023-05-18T07:26:04.418Z,101474.25
2023-05-18T07:28:31.654Z,101471.47
2023-05-18T07:30:58.964Z,101467.44
2023-05-18T07:33:26.437Z,101476.31
2023-05-18T07:35:53.388Z,101474.75
2023-05-18T07:38:22.301Z,101466.41
2023-05-18T07:40:49.200Z,101469.53
2023-05-18T07:43:16.137Z,101464.16
2023-05-18T07:45:43.064Z,101468.47
2023-05-18T07:48:10.847Z,101460.56
2023-05-18T07:50:37.895Z,101469.72
2023-05-18T07:53:04.969Z,101461.53
2023-05-18T07:55:32.505Z,101474.63
2023-05-18T07:58:01.046Z,101475.88
2023-05-18T08:00:28.114Z,101471.84
2023-05-18T08:02:55.235Z,101470.97
2023-05-18T08:05:23.186Z,101480.16
2023-05-18T08:07:53.127Z,101476.22
2023-05-18T08:10:20.290Z,101469.50
2023-05-18T08:12:47.214Z,101469.47
2023-05-18T08:15:14.215Z,101478.03
2023-05-18T08:17:41.779Z,101472.66
2023-05-18T08:20:10.652Z,101470.22
2023-05-18T08:22:37.768Z,101466.88
2023-05-18T08:25:05.201Z,101452.13
2023-05-18T08:27:32.083Z,101454.22
2023-05-18T08:29:59.013Z,101448.56
2023-05-18T08:32:26.191Z,101450.56
2023-05-18T08:34:53.227Z,101450.81
2023-05-18T08:37:21.259Z,101440.69
2023-05-18T08:39:48.312Z,101441.53
2023-05-18T08:42:51.076Z,101432.22
2023-05-18T08:45:55.202Z,101443.97
2023-05-18T08:48:25.638Z,101439.59
2023-05-18T08:50:58.246Z,101447.06
2023-05-18T08:53:25.839Z,101438.28
2023-05-18T08:55:57.756Z,101444.66
2023-05-18T08:58:44.184Z,101436.03
2023-05-18T09:01:12.245Z,101428.00
2023-05-18T09:03:40.177Z,101432.22
2023-05-18T09:06:08.342Z,101422.69
2023-05-18T09:08:35.838Z,101426.59
2023-05-18T09:11:03.742Z,101418.69
2023-05-18T09:13:33.619Z,101423.09
2023-05-18T09:16:01.003Z,101425.06
2023-05-18T09:18:28.571Z,101421.03
2023-05-18T09:20:56.005Z,101423.84
2023-05-18T09:23:23.936Z,101420.53
2023-05-18T09:25:55.764Z,101410.09
2023-05-18T09:28:30.348Z,101409.84
2023-05-18T09:31:00.144Z,101402.13
2023-05-18T09:33:35.659Z,101409.66
2023-05-18T09:36:07.825Z,101411.03
2023-05-18T09:38:40.533Z,101405.53
2023-05-18T09:41:17.343Z,101411.72
2023-05-18T09:43:46.401Z,101398.81
2023-05-18T09:46:14.465Z,101398.19
2023-05-18T09:48:47.902Z,101397.72
2023-05-18T09:51:18.682Z,101386.34
2023-05-18T09:53:58.659Z,101382.03
2023-05-18T09:56:29.519Z,101396.44
2023-05-18T09:58:56.844Z,101387.31
2023-05-18T10:01:23.974Z,101385.75
2023-05-18T10:03:51.415Z,101376.56
2023-05-18T10:06:27.388Z,101379.47
2023-05-18T10:08:59.278Z,101375.13
2023-05-18T10:11:27.593Z,101371.38
2023-05-18T10:14:15.532Z,101376.44
2023-05-18T10:16:42.932Z,101363.81
2023-05-18T10:19:12.534Z,101365.69
2023-05-18T10:21:41.626Z,101356.53
2023-05-18T10:24:11.404Z,101368.56
2023-05-18T10:26:41.412Z,101355.09
2023-05-18T10:29:09.665Z,101369.84
2023-05-18T10:31:39.057Z,101376.53
2023-05-18T10:34:09.135Z,101356.78
2023-05-18T10:36:38.084Z,101356.94
2023-05-18T10:39:06.401Z,101358.94
2023-05-18T10:41:38.151Z,101374.53
2023-05-18T10:44:06.431Z,101361.91
2023-05-18T10:46:37.161Z,101360.09
2023-05-18T10:49:07.473Z,101337.31
2023-05-18T10:51:35.642Z,101358.22
2023-05-18T10:54:14.598Z,101346.09
2023-05-18T10:56:48.166Z,101349.91
2023-05-18T10:59:18.825Z,101338.97
2023-05-18T11:01:47.639Z,101344.28
2023-05-18T11:04:14.759Z,101352.47
2023-05-18T11:06:42.600Z,101333.53
2023-05-18T11:09:24.035Z,101338.28
2023-05-18T11:11:58.723Z,101339.19
2023-05-18T11:14:34.840Z,101334.13
2023-05-18T11:17:25.743Z,101329.22
2023-05-18T11:20:12.788Z,101338.03
2023-05-18T11:22:57.683Z,101328.25
2023-05-18T11:25:24.477Z,101325.25
2023-05-18T11:28:01.965Z,101343.13
2023-05-18T11:30:50.554Z,101324.72
2023-05-18T11:33:26.543Z,101318.22
2023-05-18T11:36:09.105Z,101331.28
2023-05-18T11:39:03.829Z,101313.94
2023-05-18T11:41:39.494Z,101337.25
2023-05-18T11:44:14.859Z,101326.53
2023-05-18T11:47:01.529Z,101323.84
2023-05-18T11:49:49.068Z,101336.75
2023-05-18T11:52:24.602Z,101320.28
2023-05-18T11:54:58.069Z,101330.03
2023-05-18T11:57:27.554Z,101328.97
2023-05-18T11:59:57.565Z,101331.03
2023-05-18T12:02:32.721Z,101318.97
2023-05-18T12:05:02.330Z,101322.34
2023-05-18T12:07:32.169Z,101298.53
2023-05-18T12:10:06.622Z,101313.19
2023-05-18T12:12:34.238Z,101311.59
2023-05-18T12:15:06.387Z,101303.75
2023-05-18T12:17:50.020Z,101315.75
2023-05-18T12:20:22.635Z,101306.41
2023-05-18T12:22:53.824Z,101316.78
2023-05-18T12:25:26.761Z,101309.06
2023-05-18T12:27:55.298Z,101296.22
2023-05-18T12:30:25.786Z,101310.25
2023-05-18T12:32:57.421Z,101303.66
2023-05-18T12:35:28.992Z,101301.13
2023-05-18T12:38:00.256Z,101304.47
2023-05-18T12:40:28.491Z,101304.84
2023-05-18T12:42:56.875Z,101302.03
2023-05-18T12:45:27.955Z,101302.38
2023-05-18T12:47:56.240Z,101295.72
2023-05-18T12:50:28.434Z,101290.78
2023-05-18T12:52:58.702Z,101289.59
2023-05-18T12:55:26.614Z,101276.03
2023-05-18T12:58:18.191Z,101272.63
2023-05-18T13:00:48.248Z,101275.81
2023-05-18T13:03:21.680Z,101277.09
2023-05-18T13:06:07.126Z,101269.88
2023-05-18T13:08:36.119Z,101273.38
2023-05-18T13:11:14.432Z,101282.03
2023-05-18T13:14:03.348Z,101268.31
2023-05-18T13:16:34.150Z,101264.97
2023-05-18T13:19:04.488Z,101268.31
2023-05-18T13:21:31.628Z,101262.78
2023-05-18T13:23:58.681Z,101252.28
2023-05-18T13:26:25.834Z,101263.50
2023-05-18T13:28:55.973Z,101252.00
2023-05-18T13:31:23.738Z,101247.25
2023-05-18T13:33:51.351Z,101249.22
2023-05-18T13:36:19.352Z,101248.97
2023-05-18T13:38:46.443Z,101246.41
2023-05-18T13:41:16.767Z,101243.59
2023-05-18T13:43:43.703Z,101239.53
2023-05-18T13:46:10.720Z,101249.00
2023-05-18T13:48:37.830Z,101239.97
2023-05-18T13:51:04.769Z,101246.22
2023-05-18T13:53:31.897Z,101222.56
2023-05-18T13:55:58.732Z,101224.09
2023-05-18T13:58:25.668Z,101231.94
2023-05-18T14:00:54.354Z,101226.19
2023-05-18T14:03:21.558Z,101232.47
2023-05-18T14:05:48.698Z,101233.75
2023-05-18T14:08:15.759Z,101223.22
2023-05-18T14:10:42.708Z,101223.38
2023-05-18T14:13:09.776Z,101213.34
2023-05-18T14:15:36.784Z,101215.03
2023-05-18T14:18:04.207Z,101214.56
2023-05-18T14:20:31.579Z,101212.44
2023-05-18T14:22:59.065Z,101199.44
2023-05-18T14:25:26.829Z,101197.47
2023-05-18T14:27:53.713Z,101212.50
2023-05-18T14:30:20.821Z,101207.16
2023-05-18T14:32:47.834Z,101211.09
2023-05-18T14:35:14.897Z,101207.34
2023-05-18T14:37:41.802Z,101205.28
2023-05-18T14:40:09.339Z,101200.00
2023-05-18T14:42:37.075Z,101210.94
2023-05-18T14:45:04.906Z,101206.47
2023-05-18T14:47:31.983Z,101196.06
2023-05-18T14:49:58.915Z,101194.59
2023-05-18T14:52:26.204Z,101186.53
2023-05-18T14:54:53.142Z,101194.31
2023-05-18T14:57:20.137Z,101186.88
2023-05-18T14:59:47.066Z,101193.47
2023-05-18T15:02:14.134Z,101201.72
2023-05-18T15:04:41.243Z,101190.16
2023-05-18T15:07:08.577Z,101185.91
2023-05-18T15:09:35.658Z,101175.66
2023-05-18T15:12:02.982Z,101175.53
2023-05-18T15:14:29.991Z,101172.22
2023-05-18T15:16:58.584Z,101177.63
2023-05-18T15:19:25.683Z,101176.97
2023-05-18T15:21:52.776Z,101178.94
2023-05-18T15:24:19.666Z,101181.22
2023-05-18T15:26:46.587Z,101182.59
2023-05-18T15:29:13.637Z,101173.97
2023-05-18T15:31:40.875Z,101172.75
2023-05-18T15:34:07.878Z,101169.13
2023-05-18T15:36:36.309Z,101160.34
2023-05-18T15:39:04.735Z,101161.72
2023-05-18T15:41:34.738Z,101167.50
2023-05-18T15:44:02.275Z,101179.78
2023-05-18T15:46:35.494Z,101168.06
2023-05-18T15:49:03.903Z,101163.38
2023-05-18T15:51:31.391Z,101163.00
2023-05-18T15:53:58.260Z,101162.63
2023-05-18T15:56:25.699Z,101164.13
2023-05-18T15:58:52.675Z,101155.91
2023-05-18T16:01:19.642Z,101162.50
2023-05-18T16:03:46.736Z,101152.88
2023-05-18T16:06:13.905Z,101146.91
2023-05-18T16:08:40.819Z,101156.53
2023-05-18T16:11:07.713Z,101157.41
2023-05-18T16:13:34.707Z,101152.41
2023-05-18T16:16:03.097Z,101153.41
2023-05-18T16:18:29.992Z,101151.22
2023-05-18T16:20:56.916Z,101160.44
2023-05-18T16:23:23.877Z,101157.66
2023-05-18T16:25:51.015Z,101157.91
2023-05-18T16:28:17.980Z,101160.56
2023-05-18T16:30:44.983Z,101159.31
2023-05-18T16:33:12.130Z,101158.34
2023-05-18T16:35:39.437Z,101158.63
2023-05-18T16:38:06.311Z,101159.84
2023-05-18T16:40:33.458Z,101153.34
2023-05-18T16:43:00.718Z,101162.63
2023-05-18T16:45:28.003Z,101165.94
2023-05-18T16:47:55.268Z,101162.53
2023-05-18T16:50:22.314Z,101172.00
2023-05-18T16:52:49.312Z,101170.69
2023-05-18T16:55:16.277Z,101181.16
2023-05-18T16:57:43.418Z,101174.75
2023-05-18T17:00:11.431Z,101175.56
2023-05-18T17:02:39.188Z,101178.84
2023-05-18T17:05:08.419Z,101173.50
2023-05-18T17:07:36.467Z,101171.25
2023-05-18T17:10:06.887Z,101177.16
2023-05-18T17:12:33.826Z,101174.41
2023-05-18T17:15:02.578Z,101171.09
2023-05-18T17:17:29.752Z,101159.84
2023-05-18T17:19:56.885Z,101167.38
2023-05-18T17:22:23.830Z,101175.66
2023-05-18T17:24:50.796Z,101175.69
2023-05-18T17:27:17.697Z,101176.53
2023-05-18T17:29:44.626Z,101172.22
2023-05-18T17:32:11.568Z,101173.44
2023-05-18T17:34:38.450Z,101169.91
2023-05-18T17:37:05.480Z,101173.22
2023-05-18T17:39:32.568Z,101174.50
2023-05-18T17:42:00.178Z,101171.19
2023-05-18T17:44:27.511Z,101176.16
2023-05-18T17:46:54.555Z,101164.91
2023-05-18T17:49:21.554Z,101171.31
2023-05-18T17:51:48.900Z,101163.88
2023-05-18T17:54:16.050Z,101166.63
2023-05-18T17:56:42.914Z,101170.63
2023-05-18T17:59:09.864Z,101160.22
2023-05-18T18:01:38.055Z,101179.06
2023-05-18T18:04:05.241Z,101179.06
2023-05-18T18:06:35.670Z,101168.91
2023-05-18T18:09:04.576Z,101172.63
2023-05-18T18:11:34.845Z,101171.53
2023-05-18T18:14:04.049Z,101171.81
2023-05-18T18:16:31.052Z,101167.97
2023-05-18T18:19:00.646Z,101175.06
2023-05-18T18:21:27.637Z,101173.03
2023-05-18T18:23:54.613Z,101165.25
2023-05-18T18:26:24.510Z,101170.81
2023-05-18T18:28:51.544Z,101170.81
2023-05-18T18:31:22.400Z,101168.03
2023-05-18T18:33:52.141Z,101176.94
2023-05-18T18:36:23.273Z,101181.94
2023-05-18T18:38:55.070Z,101178.75
2023-05-18T18:41:22.201Z,101185.84
2023-05-18T18:43:49.308Z,101184.59
2023-05-18T18:46:16.255Z,101192.13
2023-05-18T18:48:47.313Z,101190.63
2023-05-18T18:51:14.301Z,101194.81
2023-05-18T18:53:44.095Z,101188.28
2023-05-18T18:56:11.109Z,101204.00
2023-05-18T18:58:39.157Z,101192.09
2023-05-18T19:01:06.621Z,101197.22
2023-05-18T19:03:40.970Z,101201.28
2023-05-18T19:06:22.739Z,101208.00
2023-05-18T19:08:52.049Z,101198.28
2023-05-18T19:11:21.796Z,101206.78
2023-05-18T19:13:48.926Z,101217.19
2023-05-18T19:16:17.615Z,101210.00
2023-05-18T19:18:45.353Z,101215.56
2023-05-18T19:21:12.431Z,101217.22
2023-05-18T19:23:39.296Z,101224.16
2023-05-18T19:26:06.320Z,101222.91
2023-05-18T19:28:33.308Z,101226.13
2023-05-18T19:31:00.228Z,101230.00
2023-05-18T19:33:27.163Z,101231.97
2023-05-18T19:35:54.673Z,101228.06
2023-05-18T19:38:21.689Z,101236.13
2023-05-18T19:40:48.521Z,101232.78
2023-05-18T19:43:16.940Z,101238.31
2023-05-18T19:45:43.895Z,101234.59
2023-05-18T19:48:12.211Z,101229.72
2023-05-18T19:50:39.145Z,101237.78
2023-05-18T19:53:06.058Z,101234.00
2023-05-18T19:55:33.308Z,101236.91
2023-05-18T19:58:00.338Z,101240.78
2023-05-18T20:00:27.519Z,101249.94
2023-05-18T20:02:54.521Z,101246.06
2023-05-18T20:05:24.214Z,101249.25
2023-05-18T20:07:51.547Z,101251.56
2023-05-18T20:10:18.565Z,101247.50
2023-05-18T20:12:45.494Z,101248.50
2023-05-18T20:15:12.443Z,101248.66
2023-05-18T20:17:39.539Z,101246.25
2023-05-18T20:20:08.096Z,101250.13
2023-05-18T20:22:34.998Z,101255.81
2023-05-18T20:25:02.742Z,101255.47
2023-05-18T20:27:29.622Z,101267.38
2023-05-18T20:29:56.488Z,101254.03
2023-05-18T20:32:23.430Z,101257.19
2023-05-18T20:34:50.388Z,101268.81
2023-05-18T20:37:17.361Z,101263.81
2023-05-18T20:39:50.707Z,101254.66
2023-05-18T20:42:22.005Z,101263.75
2023-05-18T20:44:52.656Z,101265.69
2023-05-18T20:47:20.625Z,101267.03
2023-05-18T20:49:48.543Z,101268.13
2023-05-18T20:52:15.815Z,101269.50
2023-05-18T20:54:43.607Z,101265.56
2023-05-18T20:57:10.670Z,101261.53
2023-05-18T20:59:37.575Z,101265.50
2023-05-18T21:02:05.075Z,101268.28
2023-05-18T21:04:32.053Z,101264.94
2023-05-18T21:06:59.037Z,101267.81
2023-05-18T21:09:26.072Z,101270.59
2023-05-18T21:11:53.003Z,101274.31
2023-05-18T21:14:19.961Z,101281.72
2023-05-18T21:16:46.973Z,101280.06
2023-05-18T21:19:14.065Z,101277.22
2023-05-18T21:21:41.031Z,101281.34
2023-05-18T21:24:07.917Z,101279.19
2023-05-18T21:26:35.111Z,101270.13
2023-05-18T21:29:02.005Z,101267.00
2023-05-18T21:31:29.007Z,101276.38
2023-05-18T21:33:55.909Z,101275.06
2023-05-18T21:36:33.785Z,101272.94
2023-05-18T21:39:05.700Z,101274.50
2023-05-18T21:41:35.213Z,101266.84
2023-05-18T21:44:02.184Z,101273.31
2023-05-18T21:46:29.261Z,101272.16
2023-05-18T21:48:56.311Z,101275.28
2023-05-18T21:51:23.417Z,101279.09
2023-05-18T21:53:50.952Z,101283.88
2023-05-18T21:56:18.103Z,101278.84
2023-05-18T21:58:44.996Z,101275.78
2023-05-18T22:01:11.972Z,101275.44
2023-05-18T22:03:39.767Z,101275.66
2023-05-18T22:06:06.826Z,101271.38
2023-05-18T22:08:33.718Z,101276.00
2023-05-18T22:11:00.613Z,101275.28
2023-05-18T22:13:27.634Z,101280.91
2023-05-18T22:15:54.645Z,101286.50
2023-05-18T22:18:23.583Z,101286.03
2023-05-18T22:20:50.589Z,101280.28
2023-05-18T22:23:17.457Z,101283.91
2023-05-18T22:25:45.530Z,101281.47
2023-05-18T22:28:12.888Z,101280.97
2023-05-18T22:30:40.001Z,101273.22
2023-05-18T22:33:06.907Z,101270.94
2023-05-18T22:35:36.641Z,101273.09
2023-05-18T22:38:03.704Z,101272.94
2023-05-18T22:40:30.855Z,101279.25
2023-05-18T22:42:58.153Z,101274.34
2023-05-18T22:45:25.089Z,101266.75
2023-05-18T22:47:52.783Z,101273.97
2023-05-18T22:50:19.878Z,101270.91
2023-05-18T22:52:46.733Z,101271.94
2023-05-18T22:55:13.902Z,101278.97
2023-05-18T22:57:42.169Z,101275.63
2023-05-18T23:00:12.720Z,101268.72
2023-05-18T23:02:41.194Z,101275.88
2023-05-18T23:05:09.049Z,101269.41
2023-05-18T23:07:36.468Z,101277.50
2023-05-18T23:10:07.235Z,101281.09
2023-05-18T23:12:34.259Z,101274.28
2023-05-18T23:15:03.715Z,101274.50
2023-05-18T23:17:32.436Z,101277.44
2023-05-18T23:20:06.735Z,101275.66
2023-05-18T23:22:34.836Z,101278.28
2023-05-18T23:25:04.603Z,101282.94
2023-05-18T23:27:31.921Z,101280.66
2023-05-18T23:29:58.852Z,101276.47
2023-05-18T23:32:26.481Z,101280.13
2023-05-18T23:34:54.001Z,101269.78
2023-05-18T23:37:23.552Z,101273.13
2023-05-18T23:39:54.327Z,101281.09
2023-05-18T23:42:24.366Z,101270.84
2023-05-18T23:44:51.671Z,101272.66
2023-05-18T23:47:18.960Z,101277.88
2023-05-18T23:49:48.369Z,101271.88
2023-05-18T23:52:16.369Z,101275.47
2023-05-18T23:54:45.558Z,101272.97
2023-05-18T23:57:12.858Z,101264.47
2023-05-18T23:59:41.942Z,101264.47
